Philadelphia, Pennsylvania
Traffic Map
Current Weather Conditions
Philadelphia, Pennsylvania
Few Clouds
Few Clouds
62°
Feels Like: 62°
Wind Chill: 62° Ceiling: Unl
Heat Index: 62° Visibility: 10mi
Dew Point: 54° Wind: 13mph
Humidity: 75% Direction: 80° (E)
Pressure: 30.33in Gusts: 0mph
Raw Report DataKPHL 192354Z 08011KT 10SM FEW025 17/12 A3033 RMK AO2 SLP271 T01670122 10222 20167 53006
Traffic Incident Summary
Active as of:
Severity:
Category:
InformationThere was an issue retrieving the traffic information for this location. Please try a different location or try again shortly.
Advertisements
Track Severe Weather on mobile